Time,TemperatureF,DewpointF,PressureIn,WindDirection,WindDirectionDegrees,WindSpeedMPH,WindSpeedGustMPH,Humidity,HourlyPrecipIn,Conditions,Clouds,dailyrainin,SoftwareType,DateUTC
2013-07-02 00:11:00,64.0,50.0,29.91,NE,46,0.0,2.0,60,0.00,,,0.00,,2013-07-02 05:11:00,
2013-07-02 00:22:00,64.0,50.0,29.91,NE,46,0.0,1.0,60,0.00,,,0.00,,2013-07-02 05:22:00,
2013-07-02 00:32:00,64.0,50.0,29.91,NE,46,0.0,1.0,60,0.00,,,0.00,,2013-07-02 05:32:00,
2013-07-02 00:43:00,64.0,50.0,29.91,NE,46,0.0,1.0,60,0.00,,,0.00,,2013-07-02 05:43:00,
2013-07-02 00:53:00,63.0,50.0,29.91,NE,49,0.0,0.0,62,0.00,,,0.00,,2013-07-02 05:53:00,
2013-07-02 01:01:00,63.0,50.0,29.91,NE,49,3.0,3.0,63,0.00,,,0.00,,2013-07-02 06:01:00,
2013-07-02 01:12:00,63.0,51.0,29.91,NE,49,0.0,1.0,64,0.00,,,0.00,,2013-07-02 06:12:00,
2013-07-02 01:23:00,62.0,50.0,29.91,NE,49,0.0,3.0,64,0.00,,,0.00,,2013-07-02 06:23:00,
2013-07-02 01:34:00,62.0,50.0,29.91,NE,49,0.0,3.0,64,0.00,,,0.00,,2013-07-02 06:34:00,
2013-07-02 01:43:00,62.0,50.0,29.91,NE,49,0.0,3.0,64,0.00,,,0.00,,2013-07-02 06:43:00,
2013-07-02 01:53:00,62.0,51.0,29.90,NE,49,0.0,0.0,68,0.00,,,0.00,,2013-07-02 06:53:00,
2013-07-02 02:01:00,62.0,52.0,29.90,NE,49,0.0,0.0,70,0.00,,,0.00,,2013-07-02 07:01:00,
2013-07-02 02:12:00,62.0,52.0,29.90,NE,49,0.0,0.0,70,0.00,,,0.00,,2013-07-02 07:12:00,
2013-07-02 02:22:00,61.0,52.0,29.90,ENE,65,0.0,3.0,73,0.00,,,0.00,,2013-07-02 07:22:00,
2013-07-02 02:34:00,61.0,53.0,29.90,ENE,65,1.0,2.0,74,0.00,,,0.00,,2013-07-02 07:34:00,
2013-07-02 02:44:00,61.0,53.0,29.90,ENE,65,3.0,3.0,74,0.00,,,0.00,,2013-07-02 07:44:00,
2013-07-02 02:53:00,61.0,53.0,29.90,East,94,0.0,3.0,74,0.00,,,0.00,,2013-07-02 07:53:00,
2013-07-02 03:02:00,61.0,53.0,29.90,East,94,0.0,3.0,74,0.00,,,0.00,,2013-07-02 08:02:00,
2013-07-02 03:12:00,60.0,52.0,29.90,East,82,0.0,4.0,76,0.00,,,0.00,,2013-07-02 08:12:00,
2013-07-02 03:22:00,60.0,52.0,29.90,East,87,2.0,3.0,76,0.00,,,0.00,,2013-07-02 08:22:00,
2013-07-02 03:33:00,60.0,53.0,29.90,East,86,1.0,3.0,78,0.00,,,0.00,,2013-07-02 08:33:00,
2013-07-02 03:44:00,60.0,53.0,29.90,East,86,0.0,4.0,78,0.00,,,0.00,,2013-07-02 08:44:00,
2013-07-02 03:53:00,60.0,53.0,29.90,ENE,60,2.0,6.0,77,0.00,,,0.00,,2013-07-02 08:53:00,
2013-07-02 04:02:00,60.0,53.0,29.90,ENE,60,2.0,6.0,77,0.00,,,0.00,,2013-07-02 09:02:00,
2013-07-02 04:11:00,60.0,53.0,29.90,ENE,60,2.0,3.0,78,0.00,,,0.00,,2013-07-02 09:11:00,
2013-07-02 04:23:00,60.0,53.0,29.90,ENE,60,2.0,3.0,78,0.00,,,0.00,,2013-07-02 09:23:00,
2013-07-02 04:33:00,60.0,53.0,29.90,ENE,60,2.0,3.0,78,0.00,,,0.00,,2013-07-02 09:33:00,
2013-07-02 04:43:00,60.0,53.0,29.90,East,84,2.0,4.0,78,0.00,,,0.00,,2013-07-02 09:43:00,
2013-07-02 04:52:00,60.0,53.0,29.90,East,84,2.0,4.0,78,0.00,,,0.00,,2013-07-02 09:52:00,
2013-07-02 05:01:00,60.0,53.0,29.90,East,84,2.0,4.0,78,0.00,,,0.00,,2013-07-02 10:01:00,
2013-07-02 05:11:00,60.0,53.0,29.90,East,84,2.0,4.0,78,0.00,,,0.00,,2013-07-02 10:11:00,
2013-07-02 05:22:00,60.0,52.0,29.90,East,79,0.0,0.0,75,0.00,,,0.00,,2013-07-02 10:22:00,
2013-07-02 05:33:00,60.0,52.0,29.91,East,93,0.0,3.0,74,0.00,,,0.00,,2013-07-02 10:33:00,
2013-07-02 05:44:00,60.0,51.0,29.91,East,86,0.0,3.0,72,0.00,,,0.00,,2013-07-02 10:44:00,
2013-07-02 05:52:00,60.0,49.0,29.91,East,86,0.0,0.0,68,0.00,,,0.00,,2013-07-02 10:52:00,
2013-07-02 06:01:00,60.0,49.0,29.91,ENE,74,1.0,1.0,66,0.00,,,0.00,,2013-07-02 11:01:00,
2013-07-02 06:11:00,60.0,49.0,29.91,ENE,74,1.0,1.0,66,0.00,,,0.00,,2013-07-02 11:11:00,
2013-07-02 06:22:00,60.0,48.0,29.91,ENE,65,3.0,3.0,65,0.00,,,0.00,,2013-07-02 11:22:00,
2013-07-02 06:33:00,60.0,50.0,29.91,NNE,15,0.0,1.0,69,0.00,,,0.00,,2013-07-02 11:33:00,
2013-07-02 06:42:00,60.0,51.0,29.91,NE,51,0.0,2.0,71,0.00,,,0.00,,2013-07-02 11:42:00,
2013-07-02 06:52:00,60.0,49.0,29.91,NE,53,0.0,0.0,68,0.00,,,0.00,,2013-07-02 11:52:00,
2013-07-02 07:01:00,61.0,48.0,29.92,East,90,0.0,1.0,63,0.00,,,0.00,,2013-07-02 12:01:00,
2013-07-02 07:11:00,62.0,49.0,29.92,East,81,4.0,4.0,63,0.00,,,0.00,,2013-07-02 12:11:00,
2013-07-02 07:23:00,62.0,49.0,29.92,ENE,63,0.0,3.0,63,0.00,,,0.00,,2013-07-02 12:23:00,
2013-07-02 07:33:00,62.0,49.0,29.92,ENE,63,0.0,3.0,63,0.00,,,0.00,,2013-07-02 12:33:00,
2013-07-02 07:43:00,62.0,49.0,29.92,ENE,63,0.0,3.0,63,0.00,,,0.00,,2013-07-02 12:43:00,
2013-07-02 07:52:00,63.0,46.0,29.92,ENE,65,3.0,3.0,54,0.00,,,0.00,,2013-07-02 12:52:00,
2013-07-02 08:01:00,64.0,47.0,29.92,NE,53,3.0,6.0,53,0.00,,,0.00,,2013-07-02 13:01:00,
2013-07-02 08:11:00,64.0,47.0,29.92,NE,53,3.0,6.0,53,0.00,,,0.00,,2013-07-02 13:11:00,
2013-07-02 08:22:00,65.0,45.0,29.92,NE,56,3.0,4.0,48,0.00,,,0.00,,2013-07-02 13:22:00,
2013-07-02 08:34:00,65.0,45.0,29.92,NE,56,3.0,4.0,48,0.00,,,0.00,,2013-07-02 13:34:00,
2013-07-02 08:43:00,65.0,45.0,29.92,ENE,59,2.0,3.0,49,0.00,,,0.00,,2013-07-02 13:43:00,
2013-07-02 08:52:00,65.0,45.0,29.92,ENE,59,2.0,3.0,49,0.00,,,0.00,,2013-07-02 13:52:00,
2013-07-02 09:02:00,65.0,45.0,29.92,ENE,59,2.0,3.0,49,0.00,,,0.00,,2013-07-02 14:02:00,
2013-07-02 09:11:00,66.0,45.0,29.93,NE,44,0.0,3.0,46,0.00,,,0.00,,2013-07-02 14:11:00,
2013-07-02 09:22:00,66.0,45.0,29.93,NE,44,0.0,3.0,46,0.00,,,0.00,,2013-07-02 14:22:00,
2013-07-02 09:33:00,66.0,43.0,29.93,NE,37,3.0,7.0,44,0.00,,,0.00,,2013-07-02 14:33:00,
2013-07-02 09:43:00,67.0,44.0,29.93,NE,47,2.0,5.0,43,0.00,,,0.00,,2013-07-02 14:43:00,
2013-07-02 09:53:00,67.0,44.0,29.93,NE,47,2.0,5.0,43,0.00,,,0.00,,2013-07-02 14:53:00,
2013-07-02 10:02:00,67.0,44.0,29.93,NE,47,2.0,5.0,43,0.00,,,0.00,,2013-07-02 15:02:00,
2013-07-02 10:11:00,68.0,43.0,29.91,ENE,59,3.0,6.0,41,0.00,,,0.00,,2013-07-02 15:11:00,
2013-07-02 10:22:00,68.0,43.0,29.91,ENE,59,3.0,6.0,41,0.00,,,0.00,,2013-07-02 15:22:00,
2013-07-02 10:33:00,68.0,43.0,29.91,ENE,59,3.0,6.0,41,0.00,,,0.00,,2013-07-02 15:33:00,
2013-07-02 10:44:00,68.0,43.0,29.91,ENE,59,3.0,6.0,41,0.00,,,0.00,,2013-07-02 15:44:00,
2013-07-02 10:53:00,68.0,43.0,29.91,ENE,59,3.0,6.0,41,0.00,,,0.00,,2013-07-02 15:53:00,
2013-07-02 11:43:00,70.0,45.0,29.91,ENE,63,3.0,4.0,40,0.00,,,0.00,,2013-07-02 16:43:00,
2013-07-02 11:52:00,70.0,43.0,29.91,NE,46,3.0,7.0,37,0.00,,,0.00,,2013-07-02 16:52:00,
2013-07-02 12:02:00,71.0,43.0,29.91,East,82,5.0,6.0,37,0.00,,,0.00,,2013-07-02 17:02:00,
2013-07-02 12:12:00,71.0,43.0,29.91,East,82,5.0,6.0,37,0.00,,,0.00,,2013-07-02 17:12:00,
2013-07-02 12:33:00,73.0,47.0,29.91,NE,39,0.0,3.0,39,0.00,,,0.00,,2013-07-02 17:33:00,
2013-07-02 12:43:00,73.0,47.0,29.91,NE,39,0.0,3.0,39,0.00,,,0.00,,2013-07-02 17:43:00,
2013-07-02 12:53:00,73.0,44.0,29.91,ENE,65,1.0,6.0,35,0.00,,,0.00,,2013-07-02 17:53:00,
2013-07-02 13:02:00,73.0,41.0,29.91,ENE,73,4.0,7.0,31,0.00,,,0.00,,2013-07-02 18:02:00,
2013-07-02 13:12:00,73.0,46.0,29.91,NE,54,0.0,6.0,38,0.00,,,0.00,,2013-07-02 18:12:00,
2013-07-02 13:23:00,73.0,42.0,29.91,ENE,57,2.0,5.0,33,0.00,,,0.00,,2013-07-02 18:23:00,
2013-07-02 13:34:00,73.0,42.0,29.91,ENE,57,2.0,5.0,33,0.00,,,0.00,,2013-07-02 18:34:00,
2013-07-02 13:43:00,73.0,42.0,29.91,ENE,57,2.0,5.0,33,0.00,,,0.00,,2013-07-02 18:43:00,
2013-07-02 13:53:00,74.0,43.0,29.90,NE,45,3.0,5.0,33,0.00,,,0.00,,2013-07-02 18:53:00,
2013-07-02 14:01:00,74.0,43.0,29.90,NE,45,3.0,5.0,33,0.00,,,0.00,,2013-07-02 19:01:00,
2013-07-02 14:12:00,74.0,46.0,29.90,ENE,76,1.0,9.0,37,0.00,,,0.00,,2013-07-02 19:12:00,
2013-07-02 14:22:00,74.0,47.0,29.90,North,10,2.0,5.0,38,0.00,,,0.00,,2013-07-02 19:22:00,
2013-07-02 14:34:00,74.0,47.0,29.89,NNE,28,1.0,6.0,39,0.00,,,0.00,,2013-07-02 19:34:00,
2013-07-02 14:43:00,74.0,47.0,29.89,NNE,28,1.0,6.0,39,0.00,,,0.00,,2013-07-02 19:43:00,
2013-07-02 14:53:00,73.0,48.0,29.89,ENE,71,3.0,7.0,41,0.00,,,0.00,,2013-07-02 19:53:00,
2013-07-02 15:02:00,73.0,50.0,29.89,ENE,68,4.0,7.0,45,0.00,,,0.00,,2013-07-02 20:02:00,
2013-07-02 15:11:00,73.0,50.0,29.89,NE,56,3.0,10.0,44,0.00,,,0.00,,2013-07-02 20:11:00,
2013-07-02 15:22:00,73.0,51.0,29.89,ENE,77,4.0,8.0,46,0.00,,,0.00,,2013-07-02 20:22:00,
2013-07-02 15:33:00,74.0,51.0,29.89,ENE,71,3.0,7.0,45,0.00,,,0.00,,2013-07-02 20:33:00,
2013-07-02 15:43:00,74.0,51.0,29.89,ENE,71,3.0,7.0,45,0.00,,,0.00,,2013-07-02 20:43:00,
2013-07-02 15:52:00,74.0,51.0,29.89,ENE,71,3.0,7.0,45,0.00,,,0.00,,2013-07-02 20:52:00,
2013-07-02 16:11:00,69.0,49.0,29.90,ENE,74,3.0,8.0,49,0.00,,,0.00,,2013-07-02 21:11:00,
2013-07-02 16:22:00,69.0,49.0,29.90,ENE,74,3.0,8.0,49,0.00,,,0.00,,2013-07-02 21:22:00,
2013-07-02 16:33:00,68.0,50.0,29.90,NE,44,1.0,6.0,52,0.00,,,0.00,,2013-07-02 21:33:00,
2013-07-02 16:44:00,68.0,50.0,29.90,NE,44,1.0,6.0,52,0.00,,,0.00,,2013-07-02 21:44:00,
2013-07-02 16:52:00,68.0,50.0,29.90,NE,44,1.0,6.0,52,0.00,,,0.00,,2013-07-02 21:52:00,
2013-07-02 17:01:00,68.0,50.0,29.90,NE,44,1.0,6.0,52,0.00,,,0.00,,2013-07-02 22:01:00,
2013-07-02 17:11:00,68.0,50.0,29.90,NE,44,1.0,6.0,52,0.00,,,0.00,,2013-07-02 22:11:00,
2013-07-02 17:43:00,68.0,50.0,29.90,ENE,57,4.0,6.0,52,0.00,,,0.00,,2013-07-02 22:43:00,
2013-07-02 17:53:00,68.0,50.0,29.90,ENE,57,4.0,6.0,52,0.00,,,0.00,,2013-07-02 22:53:00,
2013-07-02 18:01:00,68.0,50.0,29.90,ENE,57,4.0,6.0,52,0.00,,,0.00,,2013-07-02 23:01:00,
2013-07-02 18:12:00,68.0,50.0,29.89,NE,41,1.0,6.0,52,0.00,,,0.00,,2013-07-02 23:12:00,
2013-07-02 18:22:00,68.0,50.0,29.89,NE,41,1.0,6.0,52,0.00,,,0.00,,2013-07-02 23:22:00,
2013-07-02 18:33:00,66.0,49.0,29.90,ENE,66,3.0,4.0,55,0.00,,,0.00,,2013-07-02 23:33:00,
2013-07-02 18:44:00,66.0,50.0,29.90,ENE,78,0.0,4.0,57,0.00,,,0.00,,2013-07-02 23:44:00,
2013-07-02 18:52:00,66.0,50.0,29.89,NE,38,2.0,7.0,57,0.00,,,0.00,,2013-07-02 23:52:00,
2013-07-02 19:01:00,66.0,50.0,29.89,NE,38,2.0,7.0,57,0.00,,,0.00,,2013-07-03 00:01:00,
2013-07-02 19:11:00,66.0,49.0,29.89,NE,53,3.0,6.0,54,0.00,,,0.00,,2013-07-03 00:11:00,
2013-07-02 19:22:00,66.0,49.0,29.89,NE,53,3.0,6.0,54,0.00,,,0.00,,2013-07-03 00:22:00,
2013-07-02 19:33:00,66.0,49.0,29.89,ENE,63,4.0,8.0,54,0.00,,,0.00,,2013-07-03 00:33:00,
2013-07-02 19:44:00,65.0,46.0,29.89,ENE,77,3.0,12.0,50,0.00,,,0.00,,2013-07-03 00:44:00,
2013-07-02 19:52:00,65.0,46.0,29.89,ENE,77,3.0,12.0,50,0.00,,,0.00,,2013-07-03 00:52:00,
2013-07-02 20:01:00,65.0,46.0,29.89,ENE,77,3.0,12.0,50,0.00,,,0.00,,2013-07-03 01:01:00,
2013-07-02 20:11:00,65.0,46.0,29.89,ENE,77,3.0,12.0,50,0.00,,,0.00,,2013-07-03 01:11:00,
2013-07-02 20:22:00,64.0,45.0,29.89,East,84,3.0,5.0,51,0.00,,,0.00,,2013-07-03 01:22:00,
2013-07-02 20:33:00,64.0,45.0,29.89,East,84,3.0,5.0,51,0.00,,,0.00,,2013-07-03 01:33:00,
2013-07-02 20:43:00,63.0,45.0,29.89,ESE,103,3.0,6.0,52,0.00,,,0.00,,2013-07-03 01:43:00,
2013-07-02 20:59:00,63.0,45.0,29.89,ESE,103,3.0,6.0,52,0.00,,,0.00,,2013-07-03 01:59:00,
2013-07-02 21:04:00,63.0,45.0,29.89,ESE,103,3.0,6.0,52,0.00,,,0.00,,2013-07-03 02:04:00,
2013-07-02 21:14:00,62.0,45.0,29.89,NE,54,3.0,6.0,54,0.00,,,0.00,,2013-07-03 02:14:00,
2013-07-02 21:27:00,62.0,46.0,29.89,East,86,0.0,2.0,56,0.00,,,0.00,,2013-07-03 02:27:00,
2013-07-02 21:39:00,62.0,47.0,29.89,East,86,0.0,1.0,57,0.00,,,0.00,,2013-07-03 02:39:00,
2013-07-02 21:44:00,62.0,47.0,29.89,East,86,0.0,3.0,57,0.00,,,0.00,,2013-07-03 02:44:00,
2013-07-02 21:55:00,62.0,47.0,29.89,East,86,0.0,3.0,57,0.00,,,0.00,,2013-07-03 02:55:00,
2013-07-02 22:04:00,62.0,47.0,29.89,East,86,0.0,3.0,57,0.00,,,0.00,,2013-07-03 03:04:00,
2013-07-02 22:13:00,62.0,47.0,29.89,East,86,0.0,3.0,57,0.00,,,0.00,,2013-07-03 03:13:00,
2013-07-02 22:25:00,62.0,47.0,29.90,East,95,3.0,4.0,59,0.00,,,0.00,,2013-07-03 03:25:00,
2013-07-02 22:36:00,62.0,48.0,29.90,East,92,4.0,4.0,60,0.00,,,0.00,,2013-07-03 03:36:00,
2013-07-02 22:49:00,62.0,48.0,29.90,East,92,4.0,4.0,60,0.00,,,0.00,,2013-07-03 03:49:00,
2013-07-02 22:58:00,61.0,47.0,29.89,ENE,57,3.0,7.0,61,0.00,,,0.00,,2013-07-03 03:58:00,
2013-07-02 23:01:00,61.0,47.0,29.89,ENE,57,3.0,7.0,61,0.00,,,0.00,,2013-07-03 04:01:00,
2013-07-02 23:11:00,61.0,47.0,29.89,ENE,57,3.0,7.0,61,0.00,,,0.00,,2013-07-03 04:11:00,
2013-07-02 23:22:00,61.0,48.0,29.89,ENE,66,0.0,3.0,62,0.00,,,0.00,,2013-07-03 04:22:00,
2013-07-02 23:33:00,61.0,49.0,29.89,ENE,65,0.0,3.0,65,0.00,,,0.00,,2013-07-03 04:33:00,
2013-07-02 23:43:00,61.0,49.0,29.89,ENE,65,0.0,3.0,64,0.00,,,0.00,,2013-07-03 04:43:00,
2013-07-02 23:52:00,61.0,49.0,29.89,ENE,65,0.0,3.0,64,0.00,,,0.00,,2013-07-03 04:52:00,